Ks Flora — V7JU7 — position and weather

sailwx.info

Track history (hours):
 
Tides and Currents Weather Stations Pressure Air Temp Water Temp Dewpoint Dewpoint Depression Visibility Wind Speed Wind Dir Waves Ship Positions

Ks Flora

Last reported at 2017-Oct-15 12:18 UTC. Time now 2017-Nov-23 05:39 UTC.
Position N 27°02' W 117°33'.
Warning: this ship's position is 38 days out of date.

Length 177 m; draft 10.8 m.

Type: Cargo ship. MMSI: 538006107.

Date/timePositionNaut miles runAvg speedWind from/ knotsBaromVisibWave heightAir tempDewpointWater temp
2017-Oct-15 12:18N 27°02' W 117°33'412.4
2017-Oct-15 12:00N 27°04' W 117°37'13812.9
2017-Oct-15 01:20N 28°23' W 119°44'913.1
2017-Oct-15 00:40N 28°28' W 119°52'213.1
2017-Oct-15 00:29N 28°30' W 119°54'1713.3
2017-Oct-14 23:12N 28°40' W 120°10'713.4
2017-Oct-14 22:41N 28°44' W 120°17'213.3
2017-Oct-14 22:31N 28°45' W 120°19'913.4
2017-Oct-14 21:52N 28°50' W 120°27'813.4
2017-Oct-14 21:17N 28°54' W 120°34'3313.1
2017-Oct-14 18:47N 29°13' W 121°05'712.8
2017-Oct-14 18:13N 29°18' W 121°11'612.8
2017-Oct-14 17:46N 29°21' W 121°17'312.8
2017-Oct-14 17:30N 29°23' W 121°20'612.7
2017-Oct-14 17:00N 29°27' W 121°26'612.9
2017-Oct-14 16:31N 29°30' W 121°32'1712.8
2017-Oct-14 15:12N 29°40' W 121°48'412.9
2017-Oct-14 14:56N 29°42' W 121°51'1712.7
2017-Oct-14 13:35N 29°52' W 122°07'212.6
2017-Oct-14 13:27N 29°53' W 122°09'912.7
2017-Oct-14 12:46N 29°58' W 122°17'512.7
2017-Oct-14 12:21N 30°02' W 122°21'3212.9
2017-Oct-14 09:52N 30°28' W 122°43'512.8
2017-Oct-14 09:30N 30°32' W 122°46'612.9
2017-Oct-14 09:00N 30°37' W 122°50'1412.6
2017-Oct-14 07:54N 30°48' W 122°59'  
2017-Oct-10 13:56N 45°50' W 125°32'512.7
2017-Oct-10 13:30N 45°52' W 125°24'612.7
2017-Oct-10 13:00N 45°54' W 125°16'912.5
2017-Oct-10 12:15N 45°57' W 125°03'312.2
2017-Oct-10 12:00N 45°58' W 124°59'612.5
2017-Oct-10 11:30N 45°60' W 124°50'612.7
2017-Oct-10 11:00N 46°02' W 124°42'612.8
2017-Oct-10 10:30N 46°04' W 124°33'713.1
2017-Oct-10 10:00N 46°06' W 124°24'912.6
2017-Oct-10 09:18N 46°11' W 124°13'512.3
2017-Oct-10 08:52N 46°14' W 124°07'3 9.5
2017-Oct-10 08:30N 46°15' W 124°03'510.0
2017-Oct-10 08:00N 46°12' W 123°57'510.0
2017-Oct-10 07:31N 46°12' W 123°50'611.1
2017-Oct-10 07:00N 46°14' W 123°42'612.8
2017-Oct-10 06:30N 46°15' W 123°33'610.0
2017-Oct-10 05:56N 46°13' W 123°25'4 9.5
2017-Oct-10 05:31N 46°10' W 123°24'611.7
2017-Oct-10 05:00N 46°09' W 123°16'612.5
2017-Oct-10 04:30N 46°11' W 123°07'812.6
2017-Oct-10 03:51N 46°06' W 122°57'410.2
2017-Oct-10 03:30N 46°04' W 122°53'610.0
2017-Oct-10 02:57N 45°59' W 122°50'510.5
2017-Oct-10 02:31N 45°55' W 122°49'510.6
2017-Oct-10 02:00N 45°49' W 122°48'711.1
2017-Oct-10 01:24N 45°43' W 122°46'4 9.6
2017-Oct-10 01:01N 45°39' W 122°46'1 1.0
2017-Oct-10 00:25N 45°38' W 122°47'0 0.0
2017-Oct-09 23:55N 45°38' W 122°47'0 0.0
2017-Oct-09 23:25N 45°38' W 122°47'0 0.0
2017-Oct-09 22:58N 45°38' W 122°47'0 0.0
2017-Oct-09 22:29N 45°38' W 122°47'0 0.0
2017-Oct-09 21:59N 45°38' W 122°47'0 0.0
2017-Oct-09 21:26N 45°38' W 122°47'0 0.0
2017-Oct-09 20:59N 45°38' W 122°47'0 0.0
2017-Oct-09 20:28N 45°38' W 122°47'0 0.0
2017-Oct-09 19:55N 45°38' W 122°47'0 0.0
2017-Oct-09 19:16N 45°38' W 122°47'0 0.0
2017-Oct-09 18:58N 45°38' W 122°47'0 0.0
2017-Oct-09 18:28N 45°38' W 122°47'0 0.0
2017-Oct-09 17:55N 45°38' W 122°47'0 0.0
2017-Oct-09 17:28N 45°38' W 122°47'0 0.0
2017-Oct-09 16:58N 45°38' W 122°47'0 0.0
2017-Oct-09 16:29N 45°38' W 122°47'0 0.0
2017-Oct-09 15:58N 45°38' W 122°47'0 0.0
2017-Oct-09 15:28N 45°38' W 122°47'0 0.0
2017-Oct-09 14:55N 45°38' W 122°47'0 0.0
2017-Oct-09 14:28N 45°38' W 122°47'0 0.0
2017-Oct-09 13:58N 45°38' W 122°47'0 0.0
2017-Oct-09 13:28N 45°38' W 122°47'0 0.0
2017-Oct-09 12:58N 45°38' W 122°47'0 0.1
2017-Oct-09 12:31N 45°38' W 122°47'2 3.8
2017-Oct-09 12:00N 45°40' W 122°46'5 9.2
2017-Oct-09 11:31N 45°45' W 122°46'610.9
2017-Oct-09 10:59N 45°50' W 122°47'810.2
2017-Oct-09 10:13N 45°58' W 122°49'2 9.6
2017-Oct-09 10:00N 45°60' W 122°51'611.6
2017-Oct-09 09:30N 46°05' W 122°55'1 1.2
2017-Oct-09 09:00N 46°05' W 122°55'0 0.4
2017-Oct-09 08:30N 46°05' W 122°56'0 0.0
2017-Oct-09 08:00N 46°05' W 122°56'0 0.0
2017-Oct-09 07:30N 46°05' W 122°56'0 0.0
2017-Oct-09 07:00N 46°05' W 122°56'0 0.0
2017-Oct-09 06:21N 46°05' W 122°56'0 0.0
2017-Oct-09 06:00N 46°05' W 122°56'0 0.0
2017-Oct-09 05:30N 46°05' W 122°56'0 0.0
2017-Oct-09 04:57N 46°05' W 122°56'0 0.0
2017-Oct-09 04:30N 46°05' W 122°56'0 0.0
2017-Oct-09 04:00N 46°05' W 122°56'0 0.1
2017-Oct-09 03:30N 46°05' W 122°56'0 0.1
2017-Oct-09 03:00N 46°05' W 122°56'0 0.1
2017-Oct-09 02:30N 46°05' W 122°56'0 0.0
2017-Oct-09 01:57N 46°05' W 122°56'0 0.0
2017-Oct-09 01:27N 46°05' W 122°56'0 0.0
2017-Oct-09 00:47N 46°05' W 122°56'0 0.0
2017-Oct-09 00:27N 46°05' W 122°56'0 0.0
2017-Oct-08 23:57N 46°05' W 122°56'0 0.0
2017-Oct-08 23:27N 46°05' W 122°56'0 0.0
2017-Oct-08 23:00N 46°05' W 122°56'0 0.0
2017-Oct-08 22:12N 46°05' W 122°56'0 0.2
2017-Oct-08 22:00N 46°05' W 122°56'0 0.0
2017-Oct-08 21:30N 46°05' W 122°56'0 0.0
2017-Oct-08 21:00N 46°05' W 122°56'0 0.0
2017-Oct-08 20:18N 46°05' W 122°56'0 0.0
2017-Oct-08 19:51N 46°05' W 122°56'0 0.0
2017-Oct-08 19:24N 46°05' W 122°56'0 0.0
2017-Oct-08 18:53N 46°05' W 122°56'0 0.0
2017-Oct-08 18:30N 46°05' W 122°56'0 0.0
2017-Oct-08 17:42N 46°05' W 122°56'0 0.0
2017-Oct-08 17:30N 46°05' W 122°56'0 0.0
2017-Oct-08 16:51N 46°05' W 122°56'0 0.0
2017-Oct-08 16:30N 46°05' W 122°56'0 0.0
2017-Oct-08 16:00N 46°05' W 122°56'0 0.0
2017-Oct-08 15:27N 46°05' W 122°56'0 0.0
2017-Oct-08 14:21N 46°05' W 122°56'0 0.1
2017-Oct-08 13:51N 46°05' W 122°56'0 0.0
2017-Oct-08 13:30N 46°05' W 122°56'0 0.0
2017-Oct-08 13:00N 46°05' W 122°56'0 0.0
2017-Oct-08 12:29N 46°05' W 122°56'0 0.0
2017-Oct-08 12:00N 46°05' W 122°56'0 0.0
2017-Oct-08 11:27N 46°05' W 122°56'0 0.0
2017-Oct-08 10:59N 46°05' W 122°56'0 0.0
2017-Oct-08 10:30N 46°05' W 122°56'0 0.0
2017-Oct-08 10:00N 46°05' W 122°56'0 0.1
2017-Oct-08 09:29N 46°05' W 122°56'0 0.0
2017-Oct-08 09:00N 46°05' W 122°56'0 0.0
2017-Oct-08 08:18N 46°05' W 122°56'0 0.0
2017-Oct-08 08:00N 46°05' W 122°56'0 0.0
2017-Oct-08 07:30N 46°05' W 122°56'0 0.0
2017-Oct-08 07:00N 46°05' W 122°56'0 0.0
2017-Oct-08 06:30N 46°05' W 122°56'0 0.0
2017-Oct-08 05:57N 46°05' W 122°56'0 0.0
2017-Oct-08 05:30N 46°05' W 122°56'0 0.0
2017-Oct-08 05:00N 46°05' W 122°56'0 0.0
2017-Oct-08 04:30N 46°05' W 122°56'0 0.0
2017-Oct-08 04:00N 46°05' W 122°56'0 0.1
2017-Oct-08 03:11N 46°05' W 122°56'0 0.0
2017-Oct-08 03:00N 46°05' W 122°56'0 0.0
2017-Oct-08 02:30N 46°05' W 122°56'0 0.0
2017-Oct-08 02:00N 46°05' W 122°56'0 0.0
2017-Oct-08 01:30N 46°05' W 122°56'0 0.0
2017-Oct-08 00:50N 46°05' W 122°56'0 0.0
2017-Oct-08 00:27N 46°05' W 122°56'0 0.0
2017-Oct-08 00:00N 46°05' W 122°56'0 0.0
2017-Oct-07 23:30N 46°05' W 122°56'0 0.0
2017-Oct-07 23:00N 46°05' W 122°56'0 0.0
2017-Oct-07 22:30N 46°05' W 122°56'0 0.0
2017-Oct-07 22:00N 46°05' W 122°56'0 0.0
2017-Oct-07 21:30N 46°05' W 122°56'0 0.0
2017-Oct-07 21:00N 46°05' W 122°56'0 0.1
2017-Oct-07 20:23N 46°05' W 122°56'0 0.0
2017-Oct-07 20:00N 46°05' W 122°56'0 0.0
2017-Oct-07 19:30N 46°05' W 122°56'0 0.1
2017-Oct-07 19:00N 46°05' W 122°56'0 0.1
2017-Oct-07 18:29N 46°05' W 122°56'0 0.0
2017-Oct-07 18:00N 46°05' W 122°56'0 0.1
2017-Oct-07 17:29N 46°05' W 122°56'0 0.0
2017-Oct-07 16:20N 46°05' W 122°56'0 0.0
2017-Oct-07 15:50N 46°05' W 122°56'0 0.0
2017-Oct-07 15:26N 46°05' W 122°56'0 0.0
2017-Oct-07 14:59N 46°05' W 122°56'0 0.0
2017-Oct-07 14:23N 46°05' W 122°56'0 0.0
2017-Oct-07 13:53N 46°05' W 122°56'0 0.0
2017-Oct-07 13:29N 46°05' W 122°56'0 0.0
2017-Oct-07 12:59N 46°05' W 122°56'0 0.0
2017-Oct-07 12:29N 46°05' W 122°56'0 0.0
2017-Oct-07 11:50N 46°06' W 122°56'0 0.0
2017-Oct-07 11:29N 46°05' W 122°56'0 0.0
2017-Oct-07 10:53N 46°06' W 122°56'0 0.0
2017-Oct-07 10:29N 46°05' W 122°56'0 0.0
2017-Oct-07 09:56N 46°05' W 122°56'0 0.0
2017-Oct-07 09:29N 46°05' W 122°56'0 0.2
2017-Oct-07 09:01N 46°05' W 122°56'5 5.8
2017-Oct-07 08:12N 46°01' W 122°52'211.0
2017-Oct-07 08:00N 45°60' W 122°51'713.2
2017-Oct-07 07:30N 45°53' W 122°48'712.4
2017-Oct-07 06:57N 45°46' W 122°46'613.3
2017-Oct-07 06:30N 45°41' W 122°46'2 4.5
2017-Oct-07 06:00N 45°38' W 122°47'0 0.0
2017-Oct-07 05:30N 45°38' W 122°47'0 0.0
2017-Oct-07 05:00N 45°38' W 122°47'0 0.0
2017-Oct-07 04:30N 45°38' W 122°47'0 0.0
2017-Oct-07 04:00N 45°38' W 122°47'0 0.0
2017-Oct-07 03:30N 45°38' W 122°47'0 0.0
2017-Oct-07 03:00N 45°38' W 122°47'0 0.0
2017-Oct-07 02:21N 45°38' W 122°47'0 0.0
2017-Oct-07 01:55N 45°38' W 122°47'0 0.0
2017-Oct-07 01:27N 45°38' W 122°47'0 0.0
2017-Oct-07 01:00N 45°38' W 122°47'0 0.0
2017-Oct-07 00:30N 45°38' W 122°47'0 0.0
2017-Oct-06 23:51N 45°38' W 122°47'0 0.0
2017-Oct-06 23:27N 45°38' W 122°47'0 0.0
2017-Oct-06 22:48N 45°38' W 122°47'0 0.0
2017-Oct-06 22:30N 45°38' W 122°47'0 0.0
2017-Oct-06 21:58N 45°38' W 122°47'0 0.0
2017-Oct-06 21:06N 45°38' W 122°47'0 0.1
2017-Oct-06 21:00N 45°38' W 122°47'0 0.0
2017-Oct-06 20:27N 45°38' W 122°47'0 0.0
2017-Oct-06 19:57N 45°38' W 122°47'0 0.0
2017-Oct-06 19:25N 45°38' W 122°47'0 0.0
2017-Oct-06 18:58N 45°38' W 122°47'0 0.0
2017-Oct-06 18:30N 45°38' W 122°47'0 0.0
2017-Oct-06 17:58N 45°38' W 122°47'0 0.0
2017-Oct-06 17:28N 45°38' W 122°47'0 0.0
2017-Oct-06 16:58N 45°38' W 122°47'0 0.0
2017-Oct-06 16:28N 45°38' W 122°47'0 0.0
2017-Oct-06 15:42N 45°38' W 122°47'0 0.0
2017-Oct-06 15:30N 45°38' W 122°47'0 0.0
2017-Oct-06 14:39N 45°38' W 122°47'0 0.0
2017-Oct-06 14:30N 45°38' W 122°47'0 0.0
2017-Oct-06 14:00N 45°38' W 122°47'0 0.0
2017-Oct-06 13:30N 45°38' W 122°47'0 0.0
2017-Oct-06 13:00N 45°38' W 122°47'0 0.0
2017-Oct-06 12:30N 45°38' W 122°47'0 0.0
2017-Oct-06 11:45N 45°38' W 122°47'0 0.0
2017-Oct-06 11:27N 45°38' W 122°47'0 0.0
2017-Oct-06 10:57N 45°38' W 122°47'0 0.0
2017-Oct-06 10:30N 45°38' W 122°47'0 0.0
2017-Oct-06 10:00N 45°38' W 122°47'0 0.0
2017-Oct-06 09:30N 45°38' W 122°47'0 0.0
2017-Oct-06 08:57N 45°38' W 122°47'0 0.0
2017-Oct-06 08:30N 45°38' W 122°47'0 0.0
2017-Oct-06 08:00N 45°38' W 122°47'0 0.0
2017-Oct-06 07:27N 45°38' W 122°47'0 0.0
2017-Oct-06 07:00N 45°38' W 122°47'0 0.0
2017-Oct-06 06:30N 45°38' W 122°47'0 0.0
2017-Oct-06 06:00N 45°38' W 122°47'0 0.0
2017-Oct-06 05:27N 45°38' W 122°47'0 0.0
2017-Oct-06 04:57N 45°38' W 122°47'0 0.0
2017-Oct-06 04:27N 45°38' W 122°47'0 0.0
2017-Oct-06 03:57N 45°38' W 122°47'0 0.0
2017-Oct-06 03:24N 45°38' W 122°47'0 0.0
2017-Oct-06 02:51N 45°38' W 122°47'0 0.0
2017-Oct-06 02:27N 45°38' W 122°47'0 0.0
2017-Oct-06 02:00N 45°38' W 122°47'0 0.0
2017-Oct-06 01:30N 45°38' W 122°47'0 0.0
2017-Oct-06 00:57N 45°38' W 122°47'0 0.0
2017-Oct-06 00:30N 45°38' W 122°47'0 0.0
2017-Oct-06 00:00N 45°38' W 122°47'0 0.0
2017-Oct-05 23:30N 45°38' W 122°47'0 0.0
2017-Oct-05 22:57N 45°38' W 122°47'0 0.0
2017-Oct-05 22:24N 45°38' W 122°47'0 0.0
2017-Oct-05 22:00N 45°38' W 122°47'0 0.0
2017-Oct-05 21:30N 45°38' W 122°47'0 0.0
2017-Oct-05 21:00N 45°38' W 122°47'0 0.0
2017-Oct-05 20:27N 45°38' W 122°47'0 0.0
2017-Oct-05 19:57N 45°38' W 122°47'0 0.0
2017-Oct-05 19:24N 45°38' W 122°47'0 0.0
2017-Oct-05 19:00N 45°38' W 122°47'0 0.0
2017-Oct-05 18:30N 45°38' W 122°47'0 0.0
2017-Oct-05 18:00N 45°38' W 122°47'0 0.0
2017-Oct-05 17:27N 45°38' W 122°47'0 0.0
2017-Oct-05 16:54N 45°38' W 122°47'0 0.0
2017-Oct-05 15:15N 45°38' W 122°47'0 0.0
2017-Oct-05 15:00N 45°38' W 122°47'0 0.0
2017-Oct-05 14:18N 45°38' W 122°47'0 0.0
2017-Oct-05 14:00N 45°38' W 122°47'1 2.2
2017-Oct-05 13:28N 45°39' W 122°46'5 9.7
2017-Oct-05 13:00N 45°44' W 122°46'611.5
2017-Oct-05 12:30N 45°50' W 122°48'  
Track history (hours):
 
Tides and Currents Weather Stations Pressure Air Temp Water Temp Dewpoint Dewpoint Depression Visibility Wind Speed Wind Dir Waves Ship Positions

Ks Flora

Last reported at 2017-Oct-15 12:18 UTC. Time now 2017-Nov-23 05:39 UTC.
Position N 27°02' W 117°33'.
Warning: this ship's position is 38 days out of date.

Length 177 m; draft 10.8 m.

Type: Cargo ship. MMSI: 538006107.

Date/timePositionNaut miles runAvg speedWind from/ knotsBaromVisibWave heightAir tempDewpointWater temp
2017-Oct-15 12:18N 27°02' W 117°33'412.4
2017-Oct-15 12:00N 27°04' W 117°37'13812.9
2017-Oct-15 01:20N 28°23' W 119°44'913.1
2017-Oct-15 00:40N 28°28' W 119°52'213.1
2017-Oct-15 00:29N 28°30' W 119°54'1713.3
2017-Oct-14 23:12N 28°40' W 120°10'713.4
2017-Oct-14 22:41N 28°44' W 120°17'213.3
2017-Oct-14 22:31N 28°45' W 120°19'913.4
2017-Oct-14 21:52N 28°50' W 120°27'813.4
2017-Oct-14 21:17N 28°54' W 120°34'3313.1
2017-Oct-14 18:47N 29°13' W 121°05'712.8
2017-Oct-14 18:13N 29°18' W 121°11'612.8
2017-Oct-14 17:46N 29°21' W 121°17'312.8
2017-Oct-14 17:30N 29°23' W 121°20'612.7
2017-Oct-14 17:00N 29°27' W 121°26'612.9
2017-Oct-14 16:31N 29°30' W 121°32'1712.8
2017-Oct-14 15:12N 29°40' W 121°48'412.9
2017-Oct-14 14:56N 29°42' W 121°51'1712.7
2017-Oct-14 13:35N 29°52' W 122°07'212.6
2017-Oct-14 13:27N 29°53' W 122°09'912.7
2017-Oct-14 12:46N 29°58' W 122°17'512.7
2017-Oct-14 12:21N 30°02' W 122°21'3212.9
2017-Oct-14 09:52N 30°28' W 122°43'512.8
2017-Oct-14 09:30N 30°32' W 122°46'612.9
2017-Oct-14 09:00N 30°37' W 122°50'1412.6
2017-Oct-14 07:54N 30°48' W 122°59'  
2017-Oct-10 13:56N 45°50' W 125°32'512.7
2017-Oct-10 13:30N 45°52' W 125°24'612.7
2017-Oct-10 13:00N 45°54' W 125°16'912.5
2017-Oct-10 12:15N 45°57' W 125°03'312.2
2017-Oct-10 12:00N 45°58' W 124°59'612.5
2017-Oct-10 11:30N 45°60' W 124°50'612.7
2017-Oct-10 11:00N 46°02' W 124°42'612.8
2017-Oct-10 10:30N 46°04' W 124°33'713.1
2017-Oct-10 10:00N 46°06' W 124°24'912.6
2017-Oct-10 09:18N 46°11' W 124°13'512.3
2017-Oct-10 08:52N 46°14' W 124°07'3 9.5
2017-Oct-10 08:30N 46°15' W 124°03'510.0
2017-Oct-10 08:00N 46°12' W 123°57'510.0
2017-Oct-10 07:31N 46°12' W 123°50'611.1
2017-Oct-10 07:00N 46°14' W 123°42'612.8
2017-Oct-10 06:30N 46°15' W 123°33'610.0
2017-Oct-10 05:56N 46°13' W 123°25'4 9.5
2017-Oct-10 05:31N 46°10' W 123°24'611.7
2017-Oct-10 05:00N 46°09' W 123°16'612.5
2017-Oct-10 04:30N 46°11' W 123°07'812.6
2017-Oct-10 03:51N 46°06' W 122°57'410.2
2017-Oct-10 03:30N 46°04' W 122°53'610.0
2017-Oct-10 02:57N 45°59' W 122°50'510.5
2017-Oct-10 02:31N 45°55' W 122°49'510.6
2017-Oct-10 02:00N 45°49' W 122°48'711.1
2017-Oct-10 01:24N 45°43' W 122°46'4 9.6
2017-Oct-10 01:01N 45°39' W 122°46'1 1.0
2017-Oct-10 00:25N 45°38' W 122°47'0 0.0
2017-Oct-09 23:55N 45°38' W 122°47'0 0.0
2017-Oct-09 23:25N 45°38' W 122°47'0 0.0
2017-Oct-09 22:58N 45°38' W 122°47'0 0.0
2017-Oct-09 22:29N 45°38' W 122°47'0 0.0
2017-Oct-09 21:59N 45°38' W 122°47'0 0.0
2017-Oct-09 21:26N 45°38' W 122°47'0 0.0
2017-Oct-09 20:59N 45°38' W 122°47'0 0.0
2017-Oct-09 20:28N 45°38' W 122°47'0 0.0
2017-Oct-09 19:55N 45°38' W 122°47'0 0.0
2017-Oct-09 19:16N 45°38' W 122°47'0 0.0
2017-Oct-09 18:58N 45°38' W 122°47'0 0.0
2017-Oct-09 18:28N 45°38' W 122°47'0 0.0
2017-Oct-09 17:55N 45°38' W 122°47'0 0.0
2017-Oct-09 17:28N 45°38' W 122°47'0 0.0
2017-Oct-09 16:58N 45°38' W 122°47'0 0.0
2017-Oct-09 16:29N 45°38' W 122°47'0 0.0
2017-Oct-09 15:58N 45°38' W 122°47'0 0.0
2017-Oct-09 15:28N 45°38' W 122°47'0 0.0
2017-Oct-09 14:55N 45°38' W 122°47'0 0.0
2017-Oct-09 14:28N 45°38' W 122°47'0 0.0
2017-Oct-09 13:58N 45°38' W 122°47'0 0.0
2017-Oct-09 13:28N 45°38' W 122°47'0 0.0
2017-Oct-09 12:58N 45°38' W 122°47'0 0.1
2017-Oct-09 12:31N 45°38' W 122°47'2 3.8
2017-Oct-09 12:00N 45°40' W 122°46'5 9.2
2017-Oct-09 11:31N 45°45' W 122°46'610.9
2017-Oct-09 10:59N 45°50' W 122°47'810.2
2017-Oct-09 10:13N 45°58' W 122°49'2 9.6
2017-Oct-09 10:00N 45°60' W 122°51'611.6
2017-Oct-09 09:30N 46°05' W 122°55'1 1.2
2017-Oct-09 09:00N 46°05' W 122°55'0 0.4
2017-Oct-09 08:30N 46°05' W 122°56'0 0.0
2017-Oct-09 08:00N 46°05' W 122°56'0 0.0
2017-Oct-09 07:30N 46°05' W 122°56'0 0.0
2017-Oct-09 07:00N 46°05' W 122°56'0 0.0
2017-Oct-09 06:21N 46°05' W 122°56'0 0.0
2017-Oct-09 06:00N 46°05' W 122°56'0 0.0
2017-Oct-09 05:30N 46°05' W 122°56'0 0.0
2017-Oct-09 04:57N 46°05' W 122°56'0 0.0
2017-Oct-09 04:30N 46°05' W 122°56'0 0.0
2017-Oct-09 04:00N 46°05' W 122°56'0 0.1
2017-Oct-09 03:30N 46°05' W 122°56'0 0.1
2017-Oct-09 03:00N 46°05' W 122°56'0 0.1
2017-Oct-09 02:30N 46°05' W 122°56'0 0.0
2017-Oct-09 01:57N 46°05' W 122°56'0 0.0
2017-Oct-09 01:27N 46°05' W 122°56'0 0.0
2017-Oct-09 00:47N 46°05' W 122°56'0 0.0
2017-Oct-09 00:27N 46°05' W 122°56'0 0.0
2017-Oct-08 23:57N 46°05' W 122°56'0 0.0
2017-Oct-08 23:27N 46°05' W 122°56'0 0.0
2017-Oct-08 23:00N 46°05' W 122°56'0 0.0
2017-Oct-08 22:12N 46°05' W 122°56'0 0.2
2017-Oct-08 22:00N 46°05' W 122°56'0 0.0
2017-Oct-08 21:30N 46°05' W 122°56'0 0.0
2017-Oct-08 21:00N 46°05' W 122°56'0 0.0
2017-Oct-08 20:18N 46°05' W 122°56'0 0.0
2017-Oct-08 19:51N 46°05' W 122°56'0 0.0
2017-Oct-08 19:24N 46°05' W 122°56'0 0.0
2017-Oct-08 18:53N 46°05' W 122°56'0 0.0
2017-Oct-08 18:30N 46°05' W 122°56'0 0.0
2017-Oct-08 17:42N 46°05' W 122°56'0 0.0
2017-Oct-08 17:30N 46°05' W 122°56'0 0.0
2017-Oct-08 16:51N 46°05' W 122°56'0 0.0
2017-Oct-08 16:30N 46°05' W 122°56'0 0.0
2017-Oct-08 16:00N 46°05' W 122°56'0 0.0
2017-Oct-08 15:27N 46°05' W 122°56'0 0.0
2017-Oct-08 14:21N 46°05' W 122°56'0 0.1
2017-Oct-08 13:51N 46°05' W 122°56'0 0.0
2017-Oct-08 13:30N 46°05' W 122°56'0 0.0
2017-Oct-08 13:00N 46°05' W 122°56'0 0.0
2017-Oct-08 12:29N 46°05' W 122°56'0 0.0
2017-Oct-08 12:00N 46°05' W 122°56'0 0.0
2017-Oct-08 11:27N 46°05' W 122°56'0 0.0
2017-Oct-08 10:59N 46°05' W 122°56'0 0.0
2017-Oct-08 10:30N 46°05' W 122°56'0 0.0
2017-Oct-08 10:00N 46°05' W 122°56'0 0.1
2017-Oct-08 09:29N 46°05' W 122°56'0 0.0
2017-Oct-08 09:00N 46°05' W 122°56'0 0.0
2017-Oct-08 08:18N 46°05' W 122°56'0 0.0
2017-Oct-08 08:00N 46°05' W 122°56'0 0.0
2017-Oct-08 07:30N 46°05' W 122°56'0 0.0
2017-Oct-08 07:00N 46°05' W 122°56'0 0.0
2017-Oct-08 06:30N 46°05' W 122°56'0 0.0
2017-Oct-08 05:57N 46°05' W 122°56'0 0.0
2017-Oct-08 05:30N 46°05' W 122°56'0 0.0
2017-Oct-08 05:00N 46°05' W 122°56'0 0.0
2017-Oct-08 04:30N 46°05' W 122°56'0 0.0
2017-Oct-08 04:00N 46°05' W 122°56'0 0.1
2017-Oct-08 03:11N 46°05' W 122°56'0 0.0
2017-Oct-08 03:00N 46°05' W 122°56'0 0.0
2017-Oct-08 02:30N 46°05' W 122°56'0 0.0
2017-Oct-08 02:00N 46°05' W 122°56'0 0.0
2017-Oct-08 01:30N 46°05' W 122°56'0 0.0
2017-Oct-08 00:50N 46°05' W 122°56'0 0.0
2017-Oct-08 00:27N 46°05' W 122°56'0 0.0
2017-Oct-08 00:00N 46°05' W 122°56'0 0.0
2017-Oct-07 23:30N 46°05' W 122°56'0 0.0
2017-Oct-07 23:00N 46°05' W 122°56'0 0.0
2017-Oct-07 22:30N 46°05' W 122°56'0 0.0
2017-Oct-07 22:00N 46°05' W 122°56'0 0.0
2017-Oct-07 21:30N 46°05' W 122°56'0 0.0
2017-Oct-07 21:00N 46°05' W 122°56'0 0.1
2017-Oct-07 20:23N 46°05' W 122°56'0 0.0
2017-Oct-07 20:00N 46°05' W 122°56'0 0.0
2017-Oct-07 19:30N 46°05' W 122°56'0 0.1
2017-Oct-07 19:00N 46°05' W 122°56'0 0.1
2017-Oct-07 18:29N 46°05' W 122°56'0 0.0
2017-Oct-07 18:00N 46°05' W 122°56'0 0.1
2017-Oct-07 17:29N 46°05' W 122°56'0 0.0
2017-Oct-07 16:20N 46°05' W 122°56'0 0.0
2017-Oct-07 15:50N 46°05' W 122°56'0 0.0
2017-Oct-07 15:26N 46°05' W 122°56'0 0.0
2017-Oct-07 14:59N 46°05' W 122°56'0 0.0
2017-Oct-07 14:23N 46°05' W 122°56'0 0.0
2017-Oct-07 13:53N 46°05' W 122°56'0 0.0
2017-Oct-07 13:29N 46°05' W 122°56'0 0.0
2017-Oct-07 12:59N 46°05' W 122°56'0 0.0
2017-Oct-07 12:29N 46°05' W 122°56'0 0.0
2017-Oct-07 11:50N 46°06' W 122°56'0 0.0
2017-Oct-07 11:29N 46°05' W 122°56'0 0.0
2017-Oct-07 10:53N 46°06' W 122°56'0 0.0
2017-Oct-07 10:29N 46°05' W 122°56'0 0.0
2017-Oct-07 09:56N 46°05' W 122°56'0 0.0
2017-Oct-07 09:29N 46°05' W 122°56'0 0.2
2017-Oct-07 09:01N 46°05' W 122°56'5 5.8
2017-Oct-07 08:12N 46°01' W 122°52'211.0
2017-Oct-07 08:00N 45°60' W 122°51'713.2
2017-Oct-07 07:30N 45°53' W 122°48'712.4
2017-Oct-07 06:57N 45°46' W 122°46'613.3
2017-Oct-07 06:30N 45°41' W 122°46'2 4.5
2017-Oct-07 06:00N 45°38' W 122°47'0 0.0
2017-Oct-07 05:30N 45°38' W 122°47'0 0.0
2017-Oct-07 05:00N 45°38' W 122°47'0 0.0
2017-Oct-07 04:30N 45°38' W 122°47'0 0.0
2017-Oct-07 04:00N 45°38' W 122°47'0 0.0
2017-Oct-07 03:30N 45°38' W 122°47'0 0.0
2017-Oct-07 03:00N 45°38' W 122°47'0 0.0
2017-Oct-07 02:21N 45°38' W 122°47'0 0.0
2017-Oct-07 01:55N 45°38' W 122°47'0 0.0
2017-Oct-07 01:27N 45°38' W 122°47'0 0.0
2017-Oct-07 01:00N 45°38' W 122°47'0 0.0
2017-Oct-07 00:30N 45°38' W 122°47'0 0.0
2017-Oct-06 23:51N 45°38' W 122°47'0 0.0
2017-Oct-06 23:27N 45°38' W 122°47'0 0.0
2017-Oct-06 22:48N 45°38' W 122°47'0 0.0
2017-Oct-06 22:30N 45°38' W 122°47'0 0.0
2017-Oct-06 21:58N 45°38' W 122°47'0 0.0
2017-Oct-06 21:06N 45°38' W 122°47'0 0.1
2017-Oct-06 21:00N 45°38' W 122°47'0 0.0
2017-Oct-06 20:27N 45°38' W 122°47'0 0.0
2017-Oct-06 19:57N 45°38' W 122°47'0 0.0
2017-Oct-06 19:25N 45°38' W 122°47'0 0.0
2017-Oct-06 18:58N 45°38' W 122°47'0 0.0
2017-Oct-06 18:30N 45°38' W 122°47'0 0.0
2017-Oct-06 17:58N 45°38' W 122°47'0 0.0
2017-Oct-06 17:28N 45°38' W 122°47'0 0.0
2017-Oct-06 16:58N 45°38' W 122°47'0 0.0
2017-Oct-06 16:28N 45°38' W 122°47'0 0.0
2017-Oct-06 15:42N 45°38' W 122°47'0 0.0
2017-Oct-06 15:30N 45°38' W 122°47'0 0.0
2017-Oct-06 14:39N 45°38' W 122°47'0 0.0
2017-Oct-06 14:30N 45°38' W 122°47'0 0.0
2017-Oct-06 14:00N 45°38' W 122°47'0 0.0
2017-Oct-06 13:30N 45°38' W 122°47'0 0.0
2017-Oct-06 13:00N 45°38' W 122°47'0 0.0
2017-Oct-06 12:30N 45°38' W 122°47'0 0.0
2017-Oct-06 11:45N 45°38' W 122°47'0 0.0
2017-Oct-06 11:27N 45°38' W 122°47'0 0.0
2017-Oct-06 10:57N 45°38' W 122°47'0 0.0
2017-Oct-06 10:30N 45°38' W 122°47'0 0.0
2017-Oct-06 10:00N 45°38' W 122°47'0 0.0
2017-Oct-06 09:30N 45°38' W 122°47'0 0.0
2017-Oct-06 08:57N 45°38' W 122°47'0 0.0
2017-Oct-06 08:30N 45°38' W 122°47'0 0.0
2017-Oct-06 08:00N 45°38' W 122°47'0 0.0
2017-Oct-06 07:27N 45°38' W 122°47'0 0.0
2017-Oct-06 07:00N 45°38' W 122°47'0 0.0
2017-Oct-06 06:30N 45°38' W 122°47'0 0.0
2017-Oct-06 06:00N 45°38' W 122°47'0 0.0
2017-Oct-06 05:27N 45°38' W 122°47'0 0.0
2017-Oct-06 04:57N 45°38' W 122°47'0 0.0
2017-Oct-06 04:27N 45°38' W 122°47'0 0.0
2017-Oct-06 03:57N 45°38' W 122°47'0 0.0
2017-Oct-06 03:24N 45°38' W 122°47'0 0.0
2017-Oct-06 02:51N 45°38' W 122°47'0 0.0
2017-Oct-06 02:27N 45°38' W 122°47'0 0.0
2017-Oct-06 02:00N 45°38' W 122°47'0 0.0
2017-Oct-06 01:30N 45°38' W 122°47'0 0.0
2017-Oct-06 00:57N 45°38' W 122°47'0 0.0
2017-Oct-06 00:30N 45°38' W 122°47'0 0.0
2017-Oct-06 00:00N 45°38' W 122°47'0 0.0
2017-Oct-05 23:30N 45°38' W 122°47'0 0.0
2017-Oct-05 22:57N 45°38' W 122°47'0 0.0
2017-Oct-05 22:24N 45°38' W 122°47'0 0.0
2017-Oct-05 22:00N 45°38' W 122°47'0 0.0
2017-Oct-05 21:30N 45°38' W 122°47'0 0.0
2017-Oct-05 21:00N 45°38' W 122°47'0 0.0
2017-Oct-05 20:27N 45°38' W 122°47'0 0.0
2017-Oct-05 19:57N 45°38' W 122°47'0 0.0
2017-Oct-05 19:24N 45°38' W 122°47'0 0.0
2017-Oct-05 19:00N 45°38' W 122°47'0 0.0
2017-Oct-05 18:30N 45°38' W 122°47'0 0.0
2017-Oct-05 18:00N 45°38' W 122°47'0 0.0
2017-Oct-05 17:27N 45°38' W 122°47'0 0.0
2017-Oct-05 16:54N 45°38' W 122°47'0 0.0
2017-Oct-05 15:15N 45°38' W 122°47'0 0.0
2017-Oct-05 15:00N 45°38' W 122°47'0 0.0
2017-Oct-05 14:18N 45°38' W 122°47'0 0.0
2017-Oct-05 14:00N 45°38' W 122°47'1 2.2
2017-Oct-05 13:28N 45°39' W 122°46'5 9.7
2017-Oct-05 13:00N 45°44' W 122°46'611.5
2017-Oct-05 12:30N 45°50' W 122°48'  

Dump ship's entire track history